Time;durP1;ratioP1;P1;durP2;ratioP2;P2;SDS_P1;SDS_P2;PMS_P1;PMS_P2;Temp;Humidity;BMP_temperature;BMP_pressure;BME280_temperature;BME280_humidity;BME280_pressure;Samples;Min_cycle;Max_cycle;Signal;HPM_P1;HPM_P2
2024/03/06 00:01:40;;;;;;;81.43;13.27;;;11.10;94.20;;;;;;5069738;28;20049;-59
2024/03/06 00:04:05;;;;;;;91.65;14.25;;;11.10;94.20;;;;;;5069573;28;20403;-59
2024/03/06 00:06:31;;;;;;;73.93;12.50;;;11.10;94.20;;;;;;5051670;28;20047;-59
2024/03/06 00:08:57;;;;;;;78.57;11.93;;;11.10;94.30;;;;;;5069525;28;20017;-59
2024/03/06 00:11:22;;;;;;;72.25;12.85;;;11.00;94.30;;;;;;5051646;28;20032;-59
2024/03/06 00:13:48;;;;;;;87.40;12.88;;;11.00;94.40;;;;;;5035237;28;20021;-59
2024/03/06 00:16:14;;;;;;;74.57;12.07;;;11.00;94.40;;;;;;5051610;28;20029;-59
2024/03/06 00:18:42;;;;;;;56.45;10.18;;;11.00;94.40;;;;;;5051424;28;20058;-59
2024/03/06 00:21:09;;;;;;;74.25;10.32;;;11.00;94.30;;;;;;5069101;28;20577;-59
2024/03/06 00:23:35;;;;;;;68.82;11.63;;;11.00;94.30;;;;;;5069185;28;20032;-59
2024/03/06 00:26:02;;;;;;;63.65;11.55;;;11.00;94.30;;;;;;5051223;28;20036;-59
2024/03/06 00:28:28;;;;;;;75.60;10.52;;;10.90;94.30;;;;;;5051369;28;20075;-59
2024/03/06 00:30:53;;;;;;;64.38;11.27;;;10.90;94.30;;;;;;5034705;28;20040;-59
2024/03/06 00:33:19;;;;;;;66.78;10.55;;;10.90;94.30;;;;;;5051398;28;20048;-58
2024/03/06 00:35:44;;;;;;;61.72;11.18;;;10.90;94.30;;;;;;5050920;28;20140;-59
2024/03/06 00:38:10;;;;;;;62.53;9.68;;;10.80;94.40;;;;;;5051145;28;20558;-59
2024/03/06 00:40:36;;;;;;;54.70;9.18;;;10.80;94.50;;;;;;5068895;28;20067;-59
2024/03/06 00:43:02;;;;;;;54.45;9.75;;;10.80;94.70;;;;;;5069054;28;20088;-59
2024/03/06 00:45:27;;;;;;;53.25;9.07;;;10.70;94.40;;;;;;5050910;28;20037;-59
2024/03/06 00:47:53;;;;;;;55.20;8.98;;;10.70;94.30;;;;;;5068016;28;20107;-59
2024/03/06 00:50:21;;;;;;;50.00;8.50;;;10.70;94.30;;;;;;5068324;28;20033;-59
2024/03/06 00:52:48;;;;;;;53.38;9.30;;;10.70;94.30;;;;;;5068689;28;20025;-58
2024/03/06 00:55:14;;;;;;;42.53;8.93;;;10.70;94.40;;;;;;5068520;28;20052;-58
2024/03/06 00:57:39;;;;;;;48.60;9.10;;;10.60;94.50;;;;;;5068515;28;20033;-58
2024/03/06 01:00:10;;;;;;;40.40;7.22;;;10.60;94.50;;;;;;5050737;28;20052;-59
2024/03/06 01:02:39;;;;;;;39.40;7.78;;;10.60;94.40;;;;;;5051512;28;20029;-58
2024/03/06 01:05:06;;;;;;;51.20;7.88;;;10.60;94.30;;;;;;5068356;28;20044;-59
2024/03/06 01:07:32;;;;;;;42.28;8.93;;;10.60;94.30;;;;;;5050823;28;20032;-59
2024/03/06 01:09:57;;;;;;;44.90;8.00;;;10.60;94.30;;;;;;5050462;28;20033;-58
2024/03/06 01:12:24;;;;;;;47.88;7.65;;;10.50;94.40;;;;;;5068428;28;20025;-58
2024/03/06 01:14:49;;;;;;;43.80;8.77;;;10.50;94.40;;;;;;5050307;28;20498;-59
2024/03/06 01:17:15;;;;;;;36.78;7.65;;;10.50;94.50;;;;;;5068261;28;20025;-58
2024/03/06 01:19:43;;;;;;;49.90;8.25;;;10.50;94.50;;;;;;5050402;28;20032;-59
2024/03/06 01:22:09;;;;;;;43.85;7.85;;;10.50;94.40;;;;;;5050714;28;20021;-58
2024/03/06 01:24:34;;;;;;;32.92;7.15;;;10.50;94.40;;;;;;5050146;28;20100;-58
2024/03/06 01:27:02;;;;;;;39.03;7.00;;;10.40;94.40;;;;;;5067795;28;20086;-58
2024/03/06 01:29:28;;;;;;;41.30;7.88;;;10.40;94.40;;;;;;5050407;28;20025;-58
2024/03/06 01:31:54;;;;;;;38.42;7.13;;;10.40;94.40;;;;;;5049944;28;20025;-59
2024/03/06 01:34:19;;;;;;;39.03;7.20;;;10.30;94.40;;;;;;5067943;28;20108;-57
2024/03/06 01:36:45;;;;;;;42.42;7.80;;;10.30;94.50;;;;;;5049927;28;20033;-59
2024/03/06 01:39:11;;;;;;;30.77;6.20;;;10.30;94.50;;;;;;5050014;28;20041;-58
2024/03/06 01:41:37;;;;;;;36.55;6.82;;;10.30;94.50;;;;;;5067921;28;20037;-58
2024/03/06 01:44:03;;;;;;;32.50;6.38;;;10.30;94.50;;;;;;5033304;28;20463;-58
2024/03/06 01:46:29;;;;;;;37.60;7.50;;;10.30;94.40;;;;;;5049903;28;20515;-58
2024/03/06 01:48:55;;;;;;;36.60;6.88;;;10.20;94.50;;;;;;5050059;28;20021;-59
2024/03/06 01:51:21;;;;;;;32.47;5.90;;;10.20;94.50;;;;;;5050120;28;20053;-58
2024/03/06 01:53:46;;;;;;;34.35;5.72;;;10.20;94.50;;;;;;5049768;28;20391;-59
2024/03/06 01:56:17;;;;;;;29.48;6.05;;;10.20;94.60;;;;;;5033099;28;20476;-59
2024/03/06 01:58:42;;;;;;;30.17;6.90;;;10.20;94.60;;;;;;5050396;28;20045;-59
2024/03/06 02:01:08;;;;;;;28.45;4.90;;;10.10;94.60;;;;;;5049265;28;20464;-58
2024/03/06 02:03:34;;;;;;;26.88;6.07;;;10.10;94.60;;;;;;5049384;28;20036;-59
2024/03/06 02:06:00;;;;;;;26.20;5.50;;;10.10;94.50;;;;;;5049281;28;20044;-58
2024/03/06 02:08:26;;;;;;;29.75;5.65;;;10.10;94.60;;;;;;5032870;28;20021;-59
2024/03/06 02:10:51;;;;;;;25.98;5.03;;;10.00;94.50;;;;;;5067242;28;20029;-59
2024/03/06 02:13:18;;;;;;;22.90;5.13;;;10.00;94.60;;;;;;5049354;28;20081;-59
2024/03/06 02:15:45;;;;;;;33.25;6.00;;;10.00;94.60;;;;;;5049130;28;20037;-59
2024/03/06 02:18:10;;;;;;;28.50;4.90;;;10.00;94.60;;;;;;5049380;28;20032;-58
2024/03/06 02:20:39;;;;;;;33.55;5.15;;;10.00;94.70;;;;;;5049238;28;20041;-58
2024/03/06 02:23:05;;;;;;;23.77;4.85;;;10.00;94.70;;;;;;5049540;28;20090;-59
2024/03/06 02:25:31;;;;;;;22.58;4.57;;;10.00;94.60;;;;;;5048931;28;20037;-58
2024/03/06 02:27:57;;;;;;;32.10;5.47;;;9.90;94.70;;;;;;5049103;28;20375;-58
2024/03/06 02:30:22;;;;;;;22.60;5.15;;;9.90;94.70;;;;;;5048953;28;20391;-59
2024/03/06 02:32:48;;;;;;;19.70;4.30;;;9.90;94.70;;;;;;5066944;28;20029;-58
2024/03/06 02:35:13;;;;;;;25.08;4.95;;;9.90;94.60;;;;;;5066749;28;20112;-59
2024/03/06 02:37:40;;;;;;;23.65;5.38;;;9.90;94.60;;;;;;5066705;28;20092;-59
2024/03/06 02:40:08;;;;;;;19.27;4.20;;;9.90;94.70;;;;;;5066612;28;20048;-58
2024/03/06 02:42:36;;;;;;;23.85;4.22;;;9.90;94.70;;;;;;5048995;28;20544;-59
2024/03/06 02:45:01;;;;;;;19.63;3.85;;;9.80;94.60;;;;;;5032059;28;20033;-58
2024/03/06 02:47:27;;;;;;;21.60;4.28;;;9.80;94.60;;;;;;5032122;28;20104;-58
2024/03/06 02:49:52;;;;;;;22.75;4.50;;;9.80;94.60;;;;;;5048689;28;20025;-58
2024/03/06 02:52:18;;;;;;;21.63;4.47;;;9.80;94.60;;;;;;5049017;28;20021;-58
2024/03/06 02:54:44;;;;;;;18.67;4.05;;;9.80;94.70;;;;;;5048625;28;20029;-59
2024/03/06 02:57:09;;;;;;;16.65;4.20;;;9.80;94.70;;;;;;5048805;28;20036;-59
2024/03/06 02:59:35;;;;;;;20.80;3.70;;;9.70;94.70;;;;;;5066376;28;20029;-59
2024/03/06 03:02:01;;;;;;;17.52;4.03;;;9.70;94.70;;;;;;5048548;28;20064;-59
2024/03/06 03:04:26;;;;;;;21.42;4.05;;;9.70;94.70;;;;;;5049185;28;20051;-58
2024/03/06 03:06:52;;;;;;;20.45;4.00;;;9.70;94.70;;;;;;5048711;28;20029;-59
2024/03/06 03:09:18;;;;;;;16.38;3.80;;;9.70;94.60;;;;;;5048712;28;20052;-58
2024/03/06 03:11:44;;;;;;;9.45;3.42;;;9.70;94.60;;;;;;5048018;28;20029;-58
2024/03/06 03:14:09;;;;;;;13.02;3.33;;;9.70;94.60;;;;;;5048490;28;20025;-59
2024/03/06 03:16:36;;;;;;;14.73;3.33;;;9.70;94.60;;;;;;5048463;28;20055;-59
2024/03/06 03:19:02;;;;;;;19.75;3.58;;;9.60;94.60;;;;;;5048501;28;20025;-59
2024/03/06 03:21:27;;;;;;;17.42;3.83;;;9.60;94.60;;;;;;5049157;28;20112;-58
2024/03/06 03:23:53;;;;;;;18.98;3.63;;;9.60;94.60;;;;;;5048445;28;20029;-59
2024/03/06 03:26:18;;;;;;;16.17;3.17;;;9.60;94.60;;;;;;5048230;28;20041;-58
2024/03/06 03:28:44;;;;;;;18.67;3.70;;;9.60;94.70;;;;;;5031745;28;20032;-58
2024/03/06 03:31:10;;;;;;;14.98;3.13;;;9.50;94.70;;;;;;5048455;28;20025;-58
2024/03/06 03:33:39;;;;;;;14.88;3.10;;;9.60;94.70;;;;;;5031707;28;20467;-59
2024/03/06 03:36:07;;;;;;;17.42;2.90;;;9.50;94.60;;;;;;5047962;28;20033;-59
2024/03/06 03:38:35;;;;;;;10.10;3.17;;;9.50;94.60;;;;;;5048541;28;20029;-59
2024/03/06 03:41:03;;;;;;;14.63;2.60;;;9.50;94.60;;;;;;5048585;28;20037;-59
2024/03/06 03:43:29;;;;;;;13.05;3.05;;;9.50;94.60;;;;;;5048729;28;20029;-59
2024/03/06 03:45:55;;;;;;;12.35;3.28;;;9.50;94.60;;;;;;5048129;28;20060;-59
2024/03/06 03:48:20;;;;;;;11.80;2.58;;;9.50;94.70;;;;;;5066038;28;20051;-59
2024/03/06 03:50:46;;;;;;;12.95;3.30;;;9.50;94.70;;;;;;5048106;28;20029;-59
2024/03/06 03:53:11;;;;;;;9.10;2.95;;;9.50;94.70;;;;;;5048125;28;20032;-59
2024/03/06 03:55:37;;;;;;;12.20;3.35;;;9.40;94.60;;;;;;5065890;28;20383;-59
2024/03/06 03:58:03;;;;;;;13.38;2.63;;;9.40;94.70;;;;;;5065770;28;20083;-59
2024/03/06 04:00:29;;;;;;;11.60;2.65;;;9.40;94.70;;;;;;5047891;28;20037;-58
2024/03/06 04:02:54;;;;;;;10.20;2.42;;;9.40;94.70;;;;;;5065748;28;20021;-58
2024/03/06 04:05:21;;;;;;;8.05;2.40;;;9.40;94.70;;;;;;5047896;28;20041;-58
2024/03/06 04:07:46;;;;;;;13.35;2.72;;;9.40;94.70;;;;;;5048106;28;20033;-58
2024/03/06 04:10:12;;;;;;;11.13;2.67;;;9.40;94.70;;;;;;5031286;28;20025;-59
2024/03/06 04:12:38;;;;;;;10.68;2.45;;;9.30;94.60;;;;;;5065701;28;20021;-59
2024/03/06 04:15:05;;;;;;;10.27;2.38;;;9.30;94.70;;;;;;5048052;28;20032;-58
2024/03/06 04:17:30;;;;;;;13.00;2.53;;;9.30;94.70;;;;;;5065754;28;20030;-59
2024/03/06 04:19:56;;;;;;;13.48;2.20;;;9.30;94.70;;;;;;5047690;28;20033;-59
2024/03/06 04:22:22;;;;;;;8.85;2.20;;;9.30;94.70;;;;;;5048007;28;20025;-58
2024/03/06 04:24:47;;;;;;;12.75;2.47;;;9.30;94.70;;;;;;5034860;28;20032;-58
2024/03/06 04:27:13;;;;;;;6.82;2.13;;;9.30;94.80;;;;;;5069027;28;20021;-59
2024/03/06 04:29:39;;;;;;;8.20;2.17;;;9.30;94.80;;;;;;5051447;28;20032;-58
2024/03/06 04:32:04;;;;;;;7.70;1.75;;;9.20;94.80;;;;;;5052125;28;20067;-58
2024/03/06 04:34:30;;;;;;;8.13;2.10;;;9.30;94.70;;;;;;5069106;28;20532;-58
2024/03/06 04:36:56;;;;;;;12.32;2.50;;;9.20;94.70;;;;;;5051313;28;20035;-58
2024/03/06 04:39:22;;;;;;;8.30;1.90;;;9.20;94.70;;;;;;5051100;28;20495;-58
2024/03/06 04:41:47;;;;;;;11.55;2.33;;;9.20;94.70;;;;;;5051145;28;20033;-59
2024/03/06 04:44:13;;;;;;;6.47;2.17;;;9.20;94.70;;;;;;5068900;28;20108;-59
2024/03/06 04:46:39;;;;;;;8.90;2.15;;;9.20;94.70;;;;;;5044819;28;20064;-58
2024/03/06 04:49:04;;;;;;;6.47;2.22;;;9.20;94.80;;;;;;5031262;28;20053;-58
2024/03/06 04:51:30;;;;;;;8.63;1.70;;;9.20;94.80;;;;;;5031132;28;20025;-58
2024/03/06 04:53:55;;;;;;;6.78;2.28;;;9.10;94.70;;;;;;5048704;28;20535;-59
2024/03/06 04:56:22;;;;;;;7.00;2.33;;;9.20;94.70;;;;;;5048454;28;20112;-58
2024/03/06 04:58:47;;;;;;;9.15;2.15;;;9.10;94.80;;;;;;5014948;28;20029;-58
2024/03/06 05:01:13;;;;;;;8.55;2.28;;;9.10;94.80;;;;;;5030993;28;20490;-58
2024/03/06 05:03:39;;;;;;;7.85;1.95;;;9.10;94.70;;;;;;4998244;28;20035;-59
2024/03/06 05:06:05;;;;;;;7.10;1.90;;;9.10;94.70;;;;;;5048372;28;20041;-58
2024/03/06 05:08:31;;;;;;;6.57;1.58;;;9.10;94.70;;;;;;5014326;28;20021;-59
2024/03/06 05:10:57;;;;;;;7.18;1.80;;;9.10;94.80;;;;;;5030733;28;20041;-58
2024/03/06 05:13:23;;;;;;;7.20;1.70;;;9.10;94.70;;;;;;5013866;28;20017;-59
2024/03/06 05:15:48;;;;;;;10.85;1.70;;;9.00;94.90;;;;;;5048233;28;20099;-58
2024/03/06 05:18:14;;;;;;;11.18;2.03;;;9.10;94.60;;;;;;5031066;28;20440;-58
2024/03/06 05:20:40;;;;;;;11.35;2.17;;;9.00;94.60;;;;;;5048247;28;20041;-59
2024/03/06 05:23:06;;;;;;;7.10;1.73;;;9.00;94.60;;;;;;5013981;28;20060;-58
2024/03/06 05:25:31;;;;;;;5.97;1.60;;;9.00;94.60;;;;;;5048082;28;20209;-58
2024/03/06 05:27:57;;;;;;;10.77;1.60;;;9.00;94.60;;;;;;5030395;28;20017;-58
2024/03/06 05:30:23;;;;;;;6.13;1.40;;;9.00;94.60;;;;;;5048080;28;20025;-58
2024/03/06 05:32:48;;;;;;;7.57;1.73;;;9.00;94.60;;;;;;5030086;28;20108;-59
2024/03/06 05:35:14;;;;;;;9.02;1.73;;;8.90;94.60;;;;;;5047098;28;20033;-59
2024/03/06 05:37:40;;;;;;;11.45;1.60;;;8.90;94.70;;;;;;5029830;28;20034;-58
2024/03/06 05:40:06;;;;;;;6.28;1.38;;;8.90;94.70;;;;;;5013698;28;20064;-59
2024/03/06 05:42:32;;;;;;;9.68;1.60;;;8.90;94.70;;;;;;5047635;28;20026;-58
2024/03/06 05:45:04;;;;;;;7.47;1.88;;;8.90;94.60;;;;;;5047636;28;20034;-58
2024/03/06 05:47:33;;;;;;;8.48;1.63;;;8.90;94.60;;;;;;5047567;28;20033;-58
2024/03/06 05:49:59;;;;;;;7.43;1.60;;;8.90;94.60;;;;;;5029683;28;20037;-58
2024/03/06 05:52:25;;;;;;;12.93;1.67;;;8.90;94.60;;;;;;5029854;28;20024;-58
2024/03/06 05:54:51;;;;;;;10.98;1.80;;;8.90;94.60;;;;;;5047420;28;20026;-58
2024/03/06 05:57:16;;;;;;;13.18;2.05;;;8.90;94.70;;;;;;5013350;28;20472;-58
2024/03/06 05:59:42;;;;;;;9.85;1.80;;;8.90;94.70;;;;;;5029547;28;20030;-58
2024/03/06 06:02:07;;;;;;;9.73;2.60;;;8.90;94.80;;;;;;5047248;28;20030;-58
2024/03/06 06:04:33;;;;;;;11.45;1.42;;;8.80;94.80;;;;;;5029787;28;20092;-58
2024/03/06 06:06:59;;;;;;;18.17;2.33;;;8.90;94.80;;;;;;5047023;28;20036;-58
2024/03/06 06:09:24;;;;;;;16.08;2.67;;;8.90;94.90;;;;;;4996682;28;20037;-58
2024/03/06 06:11:50;;;;;;;14.40;2.47;;;8.80;94.90;;;;;;5013064;28;20025;-58
2024/03/06 06:14:16;;;;;;;22.70;3.03;;;8.80;94.90;;;;;;5029251;28;20026;-59
2024/03/06 06:16:42;;;;;;;22.65;2.95;;;8.90;95.00;;;;;;5012857;28;20033;-58
2024/03/06 06:19:08;;;;;;;14.95;3.30;;;8.80;95.30;;;;;;5029536;28;20040;-58
2024/03/06 06:21:35;;;;;;;17.45;3.80;;;8.80;95.00;;;;;;5029319;28;20034;-58
2024/03/06 06:24:03;;;;;;;25.15;4.05;;;8.80;95.10;;;;;;5047003;28;20175;-58
2024/03/06 06:26:29;;;;;;;24.13;3.40;;;8.80;95.10;;;;;;5012930;28;20510;-58
2024/03/06 06:28:55;;;;;;;20.38;3.55;;;8.80;95.10;;;;;;5029293;28;20079;-58
2024/03/06 06:31:20;;;;;;;24.80;3.50;;;8.80;95.10;;;;;;5029064;28;20442;-59
2024/03/06 06:33:47;;;;;;;21.08;3.67;;;8.80;95.10;;;;;;5046796;28;20056;-59
2024/03/06 06:36:12;;;;;;;31.85;4.28;;;8.80;95.10;;;;;;5028988;28;20096;-59
2024/03/06 06:38:38;;;;;;;19.77;3.45;;;8.80;95.10;;;;;;5028882;28;20040;-58
2024/03/06 06:41:04;;;;;;;23.00;3.05;;;8.80;95.10;;;;;;5046921;28;20035;-58
2024/03/06 06:43:30;;;;;;;26.75;4.80;;;8.80;95.20;;;;;;5046507;28;20193;-58
2024/03/06 06:45:55;;;;;;;29.50;4.53;;;8.80;95.20;;;;;;5028564;28;20033;-59
2024/03/06 06:48:21;;;;;;;36.10;5.72;;;8.80;95.20;;;;;;5012103;28;20087;-58
2024/03/06 06:50:47;;;;;;;45.15;5.40;;;8.80;95.30;;;;;;5046349;28;20026;-58
2024/03/06 06:53:13;;;;;;;36.47;4.78;;;8.80;95.30;;;;;;5012314;28;20032;-58
2024/03/06 06:55:39;;;;;;;49.47;5.40;;;8.80;95.40;;;;;;5028820;28;20060;-58
2024/03/06 06:58:05;;;;;;;39.25;4.78;;;8.80;95.40;;;;;;5012200;28;20034;-58
2024/03/06 07:00:33;;;;;;;40.05;5.38;;;8.80;95.40;;;;;;5012387;28;20095;-59
2024/03/06 07:03:01;;;;;;;30.00;4.18;;;8.80;95.40;;;;;;5012643;28;20379;-59
2024/03/06 07:05:27;;;;;;;36.88;5.43;;;8.80;95.30;;;;;;5046210;28;20115;-58
2024/03/06 07:07:53;;;;;;;24.63;3.50;;;8.80;95.50;;;;;;5028841;28;20021;-58
2024/03/06 07:10:19;;;;;;;31.63;4.93;;;8.80;95.40;;;;;;5028495;28;20094;-59
2024/03/06 07:12:44;;;;;;;28.08;4.63;;;8.80;95.30;;;;;;5046334;28;20029;-59
2024/03/06 07:15:10;;;;;;;31.45;4.93;;;8.80;95.30;;;;;;5028448;28;20030;-59
2024/03/06 07:17:35;;;;;;;28.42;5.15;;;8.80;95.40;;;;;;5061530;28;20057;-59
2024/03/06 07:20:01;;;;;;;25.08;4.53;;;8.80;95.40;;;;;;5066125;28;20029;-58
2024/03/06 07:22:27;;;;;;;30.50;4.45;;;8.80;95.50;;;;;;5048346;28;20025;-59
2024/03/06 07:24:52;;;;;;;23.88;3.40;;;8.80;95.50;;;;;;5047264;28;20160;-59
2024/03/06 07:27:18;;;;;;;25.88;4.60;;;8.80;95.40;;;;;;5049397;28;20030;-59
2024/03/06 07:29:44;;;;;;;23.50;5.32;;;8.80;95.40;;;;;;5014894;28;20424;-58
2024/03/06 07:32:09;;;;;;;30.67;4.65;;;8.80;95.40;;;;;;5047084;28;20025;-59
2024/03/06 07:34:36;;;;;;;22.25;3.72;;;8.80;95.30;;;;;;5048066;28;20484;-58
2024/03/06 07:37:01;;;;;;;17.77;3.88;;;8.80;95.20;;;;;;5031091;28;20068;-59
2024/03/06 07:39:27;;;;;;;19.35;3.72;;;8.80;95.20;;;;;;5065740;28;20119;-58
2024/03/06 07:41:57;;;;;;;18.92;3.47;;;8.80;95.20;;;;;;5032490;28;20053;-58
2024/03/06 07:44:23;;;;;;;21.85;3.78;;;8.80;95.20;;;;;;5039356;28;20032;-58
2024/03/06 07:46:49;;;;;;;24.85;3.85;;;8.80;95.20;;;;;;5046848;28;20063;-58
2024/03/06 07:49:14;;;;;;;19.00;3.70;;;8.70;95.20;;;;;;5047642;28;20048;-58
2024/03/06 07:51:43;;;;;;;26.33;4.55;;;8.70;95.10;;;;;;5048045;28;20025;-58
2024/03/06 07:54:08;;;;;;;19.52;4.68;;;8.70;95.10;;;;;;5064728;28;20025;-58
2024/03/06 07:56:34;;;;;;;20.38;4.40;;;8.70;95.10;;;;;;5046992;28;20021;-59
2024/03/06 07:59:00;;;;;;;29.15;4.28;;;8.70;95.10;;;;;;5050006;28;20037;-58
2024/03/06 08:01:28;;;;;;;27.08;3.70;;;8.70;95.10;;;;;;5051298;28;20048;-58
2024/03/06 08:03:55;;;;;;;23.25;3.78;;;8.70;95.30;;;;;;5051732;28;20052;-58
2024/03/06 08:06:20;;;;;;;37.28;4.45;;;8.70;95.10;;;;;;5069124;28;20029;-59
2024/03/06 08:08:46;;;;;;;22.08;3.72;;;8.70;95.10;;;;;;5051453;28;20120;-59
2024/03/06 08:11:15;;;;;;;30.27;4.43;;;8.70;95.30;;;;;;5068976;28;20033;-58
2024/03/06 08:13:41;;;;;;;35.13;5.03;;;8.70;95.20;;;;;;5051124;28;20029;-58
2024/03/06 08:16:07;;;;;;;42.13;6.22;;;8.70;95.10;;;;;;5050175;28;20036;-59
2024/03/06 08:18:33;;;;;;;45.63;5.43;;;8.70;95.20;;;;;;5044631;28;20101;-58
2024/03/06 08:20:59;;;;;;;32.80;4.82;;;8.70;95.30;;;;;;5050479;28;20053;-58
2024/03/06 08:23:24;;;;;;;35.38;4.40;;;8.70;95.30;;;;;;5045422;28;20053;-58
2024/03/06 08:25:50;;;;;;;25.55;4.43;;;8.70;95.20;;;;;;5039827;28;20492;-58
2024/03/06 08:28:16;;;;;;;25.35;3.85;;;8.70;95.20;;;;;;5014156;28;20022;-58
2024/03/06 08:30:43;;;;;;;42.47;5.40;;;8.70;95.20;;;;;;5014632;28;20034;-58
2024/03/06 08:33:10;;;;;;;39.33;4.70;;;8.70;95.30;;;;;;5035807;28;20029;-58
2024/03/06 08:35:35;;;;;;;33.53;4.35;;;8.70;95.20;;;;;;5028767;28;20053;-58
2024/03/06 08:38:01;;;;;;;36.70;5.57;;;8.70;95.20;;;;;;5003743;28;20403;-58
2024/03/06 08:40:28;;;;;;;35.53;5.03;;;8.70;95.20;;;;;;5035210;28;20021;-58
2024/03/06 08:42:54;;;;;;;30.70;4.90;;;8.80;95.30;;;;;;4998463;28;20049;-58
2024/03/06 08:45:19;;;;;;;45.50;5.82;;;8.80;95.30;;;;;;5014268;28;20025;-58
2024/03/06 08:47:45;;;;;;;39.22;6.38;;;8.80;95.40;;;;;;5014177;28;20128;-59
2024/03/06 08:50:11;;;;;;;40.60;5.22;;;8.80;95.50;;;;;;5030751;28;20025;-58
2024/03/06 08:52:38;;;;;;;63.17;6.35;;;8.80;95.80;;;;;;5030835;28;20029;-59
2024/03/06 08:55:06;;;;;;;43.50;6.00;;;8.80;95.40;;;;;;5022199;28;20030;-60
2024/03/06 08:57:35;;;;;;;52.60;6.78;;;8.80;95.40;;;;;;5057416;28;20038;-52
2024/03/06 09:00:01;;;;;;;47.42;6.72;;;8.80;95.40;;;;;;5020567;28;20017;-52
2024/03/06 09:02:27;;;;;;;47.80;6.80;;;8.80;95.40;;;;;;5050345;28;20040;-52
2024/03/06 09:04:53;;;;;;;87.70;10.13;;;8.80;95.50;;;;;;5016381;28;20442;-52
2024/03/06 09:07:19;;;;;;;269.92;25.45;;;8.80;95.80;;;;;;5032197;28;20037;-52
2024/03/06 09:09:44;;;;;;;106.47;11.95;;;8.80;96.10;;;;;;5049021;28;20081;-52
2024/03/06 09:12:10;;;;;;;92.45;11.48;;;8.90;96.50;;;;;;5033751;28;20473;-52
2024/03/06 09:14:39;;;;;;;93.28;12.38;;;8.90;96.70;;;;;;5033563;28;20487;-52
2024/03/06 09:17:05;;;;;;;99.10;11.98;;;8.90;96.70;;;;;;5033630;28;20037;-52
2024/03/06 09:19:31;;;;;;;132.93;16.08;;;8.90;96.80;;;;;;5033518;28;20025;-52
2024/03/06 09:21:57;;;;;;;165.75;20.73;;;9.00;96.90;;;;;;5048430;28;20391;-52
2024/03/06 09:24:22;;;;;;;169.18;16.80;;;9.00;97.20;;;;;;5048576;28;20534;-52
2024/03/06 09:26:49;;;;;;;114.13;13.40;;;9.10;97.30;;;;;;5067578;28;20396;-52
2024/03/06 09:29:14;;;;;;;101.30;11.05;;;9.10;97.00;;;;;;5050469;28;20167;-52
2024/03/06 09:31:40;;;;;;;92.45;12.15;;;9.10;96.60;;;;;;5050126;28;20029;-52
2024/03/06 09:34:06;;;;;;;139.13;16.13;;;9.10;96.30;;;;;;5050065;28;20037;-52
2024/03/06 09:36:32;;;;;;;107.20;12.60;;;9.10;96.40;;;;;;5032247;28;20089;-52
2024/03/06 09:38:59;;;;;;;113.72;12.57;;;9.10;96.40;;;;;;5049491;28;20069;-52
2024/03/06 09:41:24;;;;;;;101.85;11.40;;;9.10;96.40;;;;;;5049144;28;20048;-52
2024/03/06 09:43:50;;;;;;;88.60;11.63;;;9.10;96.20;;;;;;5032967;28;20438;-52
2024/03/06 09:46:17;;;;;;;94.30;11.40;;;9.10;96.00;;;;;;5048761;28;20033;-52
2024/03/06 09:48:47;;;;;;;169.40;16.92;;;9.10;96.00;;;;;;5048894;28;20033;-52
2024/03/06 09:51:13;;;;;;;132.32;14.80;;;9.10;96.00;;;;;;5049053;28;20025;-52
2024/03/06 09:53:39;;;;;;;115.70;13.77;;;9.10;96.10;;;;;;5032940;28;20057;-52
2024/03/06 09:56:05;;;;;;;112.35;12.00;;;9.10;96.10;;;;;;5049317;28;20028;-53
2024/03/06 09:58:31;;;;;;;126.85;13.52;;;9.10;96.00;;;;;;5046283;28;20037;-52
2024/03/06 10:01:00;;;;;;;105.38;11.60;;;9.10;95.90;;;;;;5031543;28;20032;-52
2024/03/06 10:03:26;;;;;;;88.70;9.80;;;9.10;96.00;;;;;;5043751;28;20030;-52
2024/03/06 10:05:52;;;;;;;102.55;12.60;;;9.10;95.80;;;;;;5032427;28;20127;-52
2024/03/06 10:08:19;;;;;;;110.72;13.75;;;9.10;95.80;;;;;;5047609;28;20032;-52
2024/03/06 10:10:47;;;;;;;113.43;12.05;;;9.10;96.00;;;;;;5049040;28;20379;-52
2024/03/06 10:13:12;;;;;;;96.13;12.30;;;9.10;96.00;;;;;;5034345;28;20407;-52
2024/03/06 10:15:39;;;;;;;102.95;12.05;;;9.10;95.90;;;;;;5014939;28;20033;-53
2024/03/06 10:18:12;;;;;;;86.43;11.02;;;9.10;95.90;;;;;;5047185;28;20029;-52
2024/03/06 10:20:38;;;;;;;101.55;11.02;;;9.20;95.90;;;;;;5029133;28;20072;-52
2024/03/06 10:23:04;;;;;;;98.90;12.32;;;9.20;95.70;;;;;;5010811;28;20030;-52
2024/03/06 10:25:29;;;;;;;104.97;12.07;;;9.10;95.70;;;;;;5026626;28;20111;-52
2024/03/06 10:28:11;;;;;;;101.38;12.48;;;9.20;95.90;;;;;;5010537;28;20230;-52
2024/03/06 10:30:37;;;;;;;96.78;12.18;;;9.20;95.70;;;;;;5040535;28;20033;-52
2024/03/06 10:33:06;;;;;;;104.45;13.45;;;9.20;95.70;;;;;;5026753;28;20026;-51
2024/03/06 10:35:41;;;;;;;73.63;10.40;;;9.20;96.10;;;;;;5063153;28;20040;-52
2024/03/06 10:38:08;;;;;;;88.88;11.50;;;9.20;95.70;;;;;;5045297;28;20087;-51
2024/03/06 10:40:43;;;;;;;79.13;12.48;;;9.20;95.70;;;;;;4996205;28;20026;-52
2024/03/06 10:43:09;;;;;;;100.97;11.38;;;9.20;95.70;;;;;;5012716;28;20056;-52
2024/03/06 10:45:47;;;;;;;81.97;11.55;;;9.30;95.80;;;;;;5012212;28;20044;-51
2024/03/06 10:48:14;;;;;;;92.63;10.20;;;9.30;95.80;;;;;;5046586;28;20017;-52
2024/03/06 10:50:46;;;;;;;68.30;10.05;;;9.30;95.70;;;;;;5046959;28;20075;-52
2024/03/06 10:53:13;;;;;;;95.90;11.95;;;9.30;95.70;;;;;;5044387;28;20025;-52
2024/03/06 10:55:39;;;;;;;93.43;11.52;;;9.30;95.60;;;;;;5065847;28;20091;-51
2024/03/06 10:58:08;;;;;;;86.95;10.55;;;9.30;95.70;;;;;;5042826;28;20089;-51
2024/03/06 11:00:40;;;;;;;76.18;11.32;;;9.40;95.80;;;;;;5042667;28;20029;-51
2024/03/06 11:03:11;;;;;;;90.32;11.70;;;9.40;95.80;;;;;;5026783;28;20025;-52
2024/03/06 11:05:41;;;;;;;77.15;9.48;;;9.40;95.70;;;;;;5036984;28;20084;-51
2024/03/06 11:08:11;;;;;;;77.20;9.63;;;9.40;95.70;;;;;;5047414;28;20476;-51
2024/03/06 11:10:37;;;;;;;86.32;9.77;;;9.40;95.80;;;;;;5030933;28;20021;-51
2024/03/06 11:13:04;;;;;;;88.43;10.30;;;9.50;95.90;;;;;;5047885;28;20025;-51
2024/03/06 11:15:30;;;;;;;61.63;8.10;;;9.50;95.90;;;;;;5065775;28;20427;-52
2024/03/06 11:17:55;;;;;;;84.80;10.68;;;9.50;95.80;;;;;;5047580;28;20029;-52
2024/03/06 11:20:25;;;;;;;61.90;8.70;;;9.50;95.80;;;;;;5047934;28;20108;-52
2024/03/06 11:23:02;;;;;;;77.88;10.07;;;9.50;95.70;;;;;;5064631;28;20056;-52
2024/03/06 11:25:55;;;;;;;81.50;9.88;;;9.50;95.70;;;;;;5062980;28;20075;-52
2024/03/06 11:28:22;;;;;;;83.75;9.73;;;9.50;95.60;;;;;;5064269;28;20037;-52
2024/03/06 11:30:48;;;;;;;64.53;9.27;;;9.50;95.60;;;;;;5045722;28;20024;-51
2024/03/06 11:33:16;;;;;;;66.70;8.88;;;9.50;95.90;;;;;;5046677;28;20032;-51
2024/03/06 11:35:48;;;;;;;76.60;9.20;;;9.50;95.70;;;;;;5049532;28;20041;-52
2024/03/06 11:38:17;;;;;;;95.60;9.82;;;9.60;95.80;;;;;;5050630;28;20048;-52
2024/03/06 11:40:43;;;;;;;60.83;9.10;;;9.60;95.80;;;;;;5049196;28;20052;-52
2024/03/06 11:43:26;;;;;;;99.53;11.73;;;9.60;95.70;;;;;;5051069;28;20125;-52
2024/03/06 11:45:52;;;;;;;75.72;10.82;;;9.60;95.70;;;;;;5051596;28;20135;-52
2024/03/06 11:48:19;;;;;;;81.85;9.05;;;9.60;95.80;;;;;;5050688;28;20036;-52
2024/03/06 11:50:45;;;;;;;93.55;11.80;;;9.60;95.80;;;;;;5051465;28;20089;-52
2024/03/06 11:53:11;;;;;;;73.00;8.80;;;9.70;95.60;;;;;;5051517;28;20029;-51
2024/03/06 11:55:36;;;;;;;81.80;10.02;;;9.70;95.80;;;;;;5031365;28;20030;-52
2024/03/06 11:58:03;;;;;;;85.72;10.10;;;9.70;95.90;;;;;;5064647;28;20043;-52
2024/03/06 12:00:30;;;;;;;63.70;8.63;;;9.70;95.90;;;;;;5068481;28;20021;-52
2024/03/06 12:02:56;;;;;;;78.93;9.02;;;9.70;95.70;;;;;;5051289;28;20033;-52
2024/03/06 12:05:23;;;;;;;74.90;10.15;;;9.80;95.70;;;;;;5053152;28;20035;-52
2024/03/06 12:07:49;;;;;;;74.88;8.40;;;9.70;95.70;;;;;;5033967;28;20179;-52
2024/03/06 12:10:16;;;;;;;67.78;8.43;;;9.70;95.80;;;;;;5033606;28;20096;-52
2024/03/06 12:12:42;;;;;;;83.95;9.68;;;9.70;95.70;;;;;;5050841;28;20083;-52
2024/03/06 12:15:11;;;;;;;78.05;9.75;;;9.80;95.60;;;;;;5050108;28;20055;-52
2024/03/06 12:17:50;;;;;;;93.03;10.10;;;9.80;95.70;;;;;;5049853;28;20037;-52
2024/03/06 12:20:16;;;;;;;56.80;8.38;;;9.80;95.70;;;;;;5049934;28;20039;-52
2024/03/06 12:22:59;;;;;;;55.70;8.65;;;9.80;95.70;;;;;;5035046;28;20677;-52
2024/03/06 12:25:26;;;;;;;62.97;7.88;;;9.80;95.60;;;;;;5045104;28;20021;-52
2024/03/06 12:27:53;;;;;;;72.95;8.30;;;9.80;95.60;;;;;;5025247;28;20097;-52
2024/03/06 12:30:20;;;;;;;76.28;8.60;;;9.80;95.60;;;;;;5041783;28;20044;-52
2024/03/06 12:32:56;;;;;;;64.82;6.78;;;9.80;95.50;;;;;;5065388;28;20109;-52
2024/03/06 12:35:26;;;;;;;51.10;7.20;;;9.80;95.50;;;;;;5029590;28;20141;-52
2024/03/06 12:37:52;;;;;;;47.72;6.82;;;9.80;95.50;;;;;;5057239;28;20082;-52
2024/03/06 12:40:18;;;;;;;42.75;6.18;;;9.80;95.50;;;;;;5033849;28;20084;-52